Time;durP1;ratioP1;P1;durP2;ratioP2;P2;SDS_P1;SDS_P2;PMS_P1;PMS_P2;Temp;Humidity;BMP_temperature;BMP_pressure;BME280_temperature;BME280_humidity;BME280_pressure;Samples;Min_cycle;Max_cycle;Signal;HPM_P1;HPM_P2
2021/12/04 00:01:18;;;;;;;;;;;;;;;-142.21;100.00;66915.31;5034450;28;1287;-88
2021/12/04 00:03:43;;;;;;;;;;;;;;;-142.21;100.00;66915.31;5034596;28;1355;-88
2021/12/04 00:06:23;;;;;;;;;;;;;;;-142.21;100.00;66915.31;5034748;28;1195;-87
2021/12/04 00:09:01;;;;;;;;;;;;;;;-142.21;100.00;66915.31;5035817;28;1902;-88
2021/12/04 00:14:36;;;;;;;;;;;;;;;-142.21;100.00;66915.31;5035795;28;1289;-88
2021/12/04 00:17:49;;;;;;;;;;;;;;;-142.21;100.00;66915.31;5034545;28;1292;-88
2021/12/04 00:20:30;;;;;;;;;;;;;;;;;;;;;
2021/12/04 00:23:22;;;;;;;;;;;;;;;-142.21;100.00;66915.31;4993442;28;1303;-88
2021/12/04 00:26:11;;;;;;;;;;;;;;;;;;;;;
2021/12/04 00:49:54;;;;;;;;;;;;;;;-142.21;100.00;66915.31;5034888;28;1947;-90
2021/12/04 00:52:19;;;;;;;;;;;;;;;-142.21;100.00;66915.31;5033768;28;1195;-89
2021/12/04 00:54:45;;;;;;;;;;;;;;;-142.21;100.00;66915.31;5033733;28;1272;-88
2021/12/04 00:57:10;;;;;;;;;;;;;;;-142.21;100.00;66915.31;5034684;28;1581;-88
2021/12/04 00:59:36;;;;;;;;;;;;;;;-142.21;100.00;66915.31;5033445;28;1514;-89
2021/12/04 01:02:02;;;;;;;;;;;;;;;-142.21;100.00;66915.31;5035182;28;905;-89
2021/12/04 01:04:27;;;;;;;;;;;;;;;-142.21;100.00;66915.31;5033545;28;1295;-88
2021/12/04 01:06:53;;;;;;;;;;;;;;;-142.21;100.00;66915.31;5033445;28;1508;-90
2021/12/04 01:09:21;;;;;;;;;;;;;;;-142.21;100.00;66915.31;5033254;28;1894;-90
2021/12/04 01:11:49;;;;;;;;;;;;;;;-142.21;100.00;66915.31;5034482;28;1163;-89
2021/12/04 01:14:18;;;;;;;;;;;;;;;-142.21;100.00;66915.31;5011179;23;1758;-89
2021/12/04 01:23:22;;;;;;;;;;;;;;;-142.21;100.00;66915.31;4889814;29;1169;-89
2021/12/04 01:29:32;;;;;;;;;;;;;;;-142.21;100.00;66915.31;4859126;29;1919;-88
2021/12/04 01:35:26;;;;;;;;;;;;;;;-142.21;100.00;66915.31;4878330;29;1233;-89
2021/12/04 01:47:33;;;;;;;;;;;;;;;-142.21;100.00;66915.31;4934036;29;1295;-88
2021/12/04 01:50:26;;;;;;;;;;;;;;;-142.21;100.00;66915.31;4920975;29;1301;-88
2021/12/04 01:52:55;;;;;;;;;;;;;;;-142.21;100.00;66915.31;4954972;29;1248;-89
2021/12/04 01:55:22;;;;;;;;;;;;;;;-142.21;100.00;66915.31;4955745;28;1228;-89
2021/12/04 01:57:48;;;;;;;;;;;;;;;-142.21;100.00;66915.31;4954610;29;1416;-88
2021/12/04 02:00:13;;;;;;;;;;;;;;;-142.21;100.00;66915.31;4954303;29;1210;-89
2021/12/04 02:02:41;;;;;;;;;;;;;;;-142.21;100.00;66915.31;4954658;29;1394;-88
2021/12/04 02:05:06;;;;;;;;;;;;;;;-142.21;100.00;66915.31;4955524;28;1205;-88
2021/12/04 02:07:35;;;;;;;;;;;;;;;-142.21;100.00;66915.31;4954471;29;1330;-87
2021/12/04 02:10:02;;;;;;;;;;;;;;;-142.21;100.00;66915.31;4954113;29;1222;-88
2021/12/04 02:12:29;;;;;;;;;;;;;;;-142.21;100.00;66915.31;4954296;29;1306;-88
2021/12/04 02:14:55;;;;;;;;;;;;;;;-142.21;100.00;66915.31;4954114;28;1304;-89
2021/12/04 02:17:20;;;;;;;;;;;;;;;-142.21;100.00;66915.31;4954320;29;1582;-88
2021/12/04 02:19:46;;;;;;;;;;;;;;;-142.21;100.00;66915.31;4954189;29;1202;-89
2021/12/04 02:22:11;;;;;;;;;;;;;;;-142.21;100.00;66915.31;4954520;29;1341;-87
2021/12/04 02:24:37;;;;;;;;;;;;;;;-142.21;100.00;66915.31;4954422;29;1325;-88
2021/12/04 02:27:02;;;;;;;;;;;;;;;-142.21;100.00;66915.31;4954615;29;1284;-89
2021/12/04 02:29:28;;;;;;;;;;;;;;;-142.21;100.00;66915.31;4956572;29;1902;-89
2021/12/04 02:32:17;;;;;;;;;;;;;;;-142.21;100.00;66915.31;4956908;29;1342;-89
2021/12/04 02:34:42;;;;;;;;;;;;;;;-142.21;100.00;66915.31;4956398;29;1242;-89
2021/12/04 02:37:10;;;;;;;;;;;;;;;-142.21;100.00;66915.31;4957678;29;857;-88
2021/12/04 02:39:38;;;;;;;;;;;;;;;-142.21;100.00;66915.31;4954217;29;1225;-89
2021/12/04 02:42:06;;;;;;;;;;;;;;;-142.21;100.00;66915.31;4954463;29;1181;-89
2021/12/04 02:44:37;;;;;;;;;;;;;;;-142.21;100.00;66915.31;4955602;28;1186;-90
2021/12/04 02:47:04;;;;;;;;;;;;;;;-142.21;100.00;66915.31;4956131;29;1260;-88
2021/12/04 02:49:29;;;;;;;;;;;;;;;-142.21;100.00;66915.31;4954432;29;1898;-88
2021/12/04 02:52:00;;;;;;;;;;;;;;;-142.21;100.00;66915.31;4954459;29;1213;-88
2021/12/04 02:54:25;;;;;;;;;;;;;;;-142.21;100.00;66915.31;4954146;29;1431;-87
2021/12/04 02:56:52;;;;;;;;;;;;;;;-142.21;100.00;66915.31;4956185;28;1353;-88
2021/12/04 02:59:17;;;;;;;;;;;;;;;-142.21;100.00;66915.31;4957945;29;1385;-88
2021/12/04 03:01:45;;;;;;;;;;;;;;;-142.21;100.00;66915.31;4958490;29;1510;-88
2021/12/04 03:04:11;;;;;;;;;;;;;;;-142.21;100.00;66915.31;4958240;29;1427;-88
2021/12/04 03:06:43;;;;;;;;;;;;;;;-142.21;100.00;66915.31;4957855;28;1929;-88
2021/12/04 03:09:09;;;;;;;;;;;;;;;-142.21;100.00;66915.31;4958050;29;1963;-88
2021/12/04 03:11:35;;;;;;;;;;;;;;;-142.21;100.00;66915.31;4957889;29;1159;-88
2021/12/04 03:14:01;;;;;;;;;;;;;;;-142.21;100.00;66915.31;4958854;28;1201;-87
2021/12/04 03:16:27;;;;;;;;;;;;;;;-142.21;100.00;66915.31;4957744;29;1238;-88
2021/12/04 03:18:54;;;;;;;;;;;;;;;-142.21;100.00;66915.31;4959076;29;892;-88
2021/12/04 03:21:20;;;;;;;;;;;;;;;-142.21;100.00;66915.31;4936778;29;1360;-88
2021/12/04 03:24:12;;;;;;;;;;;;;;;-142.21;100.00;66915.31;4921646;29;1246;-88
2021/12/04 03:26:51;;;;;;;;;;;;;;;-142.21;100.00;66915.31;4914366;29;1358;-88
2021/12/04 03:29:39;;;;;;;;;;;;;;;;;;;;;
2021/12/04 03:44:38;;;;;;;;;;;;;;;-142.21;100.00;66915.31;4918860;29;1344;-87
2021/12/04 03:47:04;;;;;;;;;;;;;;;-142.21;100.00;66915.31;4875678;29;1400;-88
2021/12/04 03:52:46;;;;;;;;;;;;;;;-142.21;100.00;66915.31;4899236;29;1038;-88
2021/12/04 03:58:49;;;;;;;;;;;;;;;-142.21;100.00;66915.31;4861604;29;1483;-87
2021/12/04 04:01:42;;;;;;;;;;;;;;;;;;;;;
2021/12/04 04:04:20;;;;;;;;;;;;;;;-142.21;100.00;66915.31;4866625;29;1477;-88
2021/12/04 04:06:45;;;;;;;;;;;;;;;-142.21;100.00;66915.31;4861855;29;1693;-88
2021/12/04 04:09:36;;;;;;;;;;;;;;;-142.21;100.00;66915.31;4947266;29;1910;-89
2021/12/04 04:13:16;;;;;;;;;;;;;;;-142.21;100.00;66915.31;4938215;29;1388;-88
2021/12/04 04:18:58;;;;;;;;;;;;;;;-142.21;100.00;66915.31;4898658;29;713;-88
2021/12/04 04:22:03;;;;;;;;;;;;;;;;;;;;;
2021/12/04 04:24:41;;;;;;;;;;;;;;;-142.21;100.00;66915.31;4956968;28;1438;-88
2021/12/04 04:27:52;;;;;;;;;;;;;;;;;;;;;
2021/12/04 04:30:31;;;;;;;;;;;;;;;-142.21;100.00;66915.31;4959520;29;1223;-88
2021/12/04 05:21:35;;;;;;;;;;;;;;;;;;;;;
2021/12/04 05:24:08;;;;;;;;;;;;;;;-142.21;100.00;66915.31;4975402;28;1210;-89
2021/12/04 05:29:42;;;;;;;;;;;;;;;-142.21;100.00;66915.31;4975370;28;1958;-88
2021/12/04 05:32:41;;;;;;;;;;;;;;;-142.21;100.00;66915.31;4974765;28;1302;-88
2021/12/04 05:35:09;;;;;;;;;;;;;;;-142.21;100.00;66915.31;4974419;28;1463;-90
2021/12/04 05:37:34;;;;;;;;;;;;;;;-142.21;100.00;66915.31;4966670;28;1481;-90
2021/12/04 05:43:04;;;;;;;;;;;;;;;-142.21;100.00;66915.31;4956325;29;945;-88
2021/12/04 05:45:37;;;;;;;;;;;;;;;-142.21;100.00;66915.31;4954618;28;1253;-88
2021/12/04 05:54:57;;;;;;;;;;;;;;;-142.21;100.00;66915.31;4925711;29;1232;-89
2021/12/04 05:58:02;;;;;;;;;;;;;;;-142.21;100.00;66915.31;4938697;29;1369;-89
2021/12/04 06:00:37;;;;;;;;;;;;;;;;;;;;;
2021/12/04 06:03:12;;;;;;;;;;;;;;;-142.21;100.00;66915.31;4922307;29;1391;-89
2021/12/04 06:09:26;;;;;;;;;;;;;;;-142.21;100.00;66915.31;4934197;29;1973;-89
2021/12/04 06:11:51;;;;;;;;;;;;;;;-142.21;100.00;66915.31;4914114;29;1592;-87
2021/12/04 06:14:16;;;;;;;;;;;;;;;-142.21;100.00;66915.31;4965763;23;1881;-89
2021/12/04 06:17:24;;;;;;;;;;;;;;;-142.21;100.00;66915.31;5032689;28;1187;-89
2021/12/04 06:23:14;;;;;;;;;;;;;;;-142.21;100.00;66915.31;4955089;29;1329;-88
2021/12/04 06:25:39;;;;;;;;;;;;;;;-142.21;100.00;66915.31;4942670;29;1486;-89
2021/12/04 06:28:15;;;;;;;;;;;;;;;-142.21;100.00;66915.31;4974148;28;1948;-89
2021/12/04 06:34:17;;;;;;;;;;;;;;;-142.21;100.00;66915.31;4982822;28;1284;-89
2021/12/04 06:37:18;;;;;;;;;;;;;;;-142.21;100.00;66915.31;5015477;28;1263;-89
2021/12/04 06:39:47;;;;;;;;;;;;;;;-142.21;100.00;66915.31;5019829;28;1343;-89
2021/12/04 06:47:55;;;;;;;;;;;;;;;-142.21;100.00;66915.31;5044071;23;1965;-88
2021/12/04 06:50:35;;;;;;;;;;;;;;;-142.21;100.00;66915.31;5036108;28;1417;-89
2021/12/04 06:54:05;;;;;;;;;;;;;;;-142.21;100.00;66915.31;5036734;28;1256;-87
2021/12/04 06:56:18;;;;;;;;;;;;;;;-142.21;100.00;66915.31;5012552;28;1329;-89
2021/12/04 06:58:43;;;;;;;;;;;;;;;-142.21;100.00;66915.31;5017600;28;1360;-90
2021/12/04 07:04:44;;;;;;;;;;;;;;;-142.21;100.00;66915.31;4956951;29;1229;-89
2021/12/04 07:07:15;;;;;;;;;;;;;;;-142.21;100.00;66915.31;5017230;28;1226;-89
2021/12/04 07:09:41;;;;;;;;;;;;;;;-142.21;100.00;66915.31;5016438;28;1886;-88
2021/12/04 07:12:06;;;;;;;;;;;;;;;-142.21;100.00;66915.31;5012681;28;1305;-88
2021/12/04 07:14:32;;;;;;;;;;;;;;;-142.21;100.00;66915.31;4996423;28;1321;-88
2021/12/04 07:16:59;;;;;;;;;;;;;;;-142.21;100.00;66915.31;4996626;28;1271;-88
2021/12/04 07:19:25;;;;;;;;;;;;;;;-142.21;100.00;66915.31;4996574;28;1192;-88
2021/12/04 07:24:45;;;;;;;;;;;;;;;-142.21;100.00;66915.31;4982478;28;1261;-88
2021/12/04 07:27:10;;;;;;;;;;;;;;;-142.21;100.00;66915.31;4998675;28;1322;-89
2021/12/04 07:29:35;;;;;;;;;;;;;;;-142.21;100.00;66915.31;4997872;28;1894;-89
2021/12/04 07:32:00;;;;;;;;;;;;;;;-142.21;100.00;66915.31;5012817;28;973;-88
2021/12/04 07:34:25;;;;;;;;;;;;;;;-142.21;100.00;66915.31;4999725;28;1243;-85
2021/12/04 07:36:50;;;;;;;;;;;;;;;-142.21;100.00;66915.31;5002277;28;1063;-87
2021/12/04 07:39:16;;;;;;;;;;;;;;;-142.21;100.00;66915.31;5028885;28;1855;-87
2021/12/04 07:41:43;;;;;;;;;;;;;;;-142.21;100.00;66915.31;5019232;28;1207;-86
2021/12/04 07:44:09;;;;;;;;;;;;;;;-142.21;100.00;66915.31;5018582;28;1306;-87
2021/12/04 07:46:38;;;;;;;;;;;;;;;-142.21;100.00;66915.31;5018374;28;1634;-86
2021/12/04 07:49:04;;;;;;;;;;;;;;;-142.21;100.00;66915.31;5019263;28;1932;-85
2021/12/04 07:51:29;;;;;;;;;;;;;;;-142.21;100.00;66915.31;5018667;28;1274;-87
2021/12/04 07:53:54;;;;;;;;;;;;;;;-142.21;100.00;66915.31;5016107;28;1796;-86
2021/12/04 07:56:19;;;;;;;;;;;;;;;-142.21;100.00;66915.31;4999951;28;1075;-86
2021/12/04 07:58:45;;;;;;;;;;;;;;;-142.21;100.00;66915.31;5001963;28;885;-86
2021/12/04 08:01:10;;;;;;;;;;;;;;;-142.21;100.00;66915.31;5009431;28;1638;-86
2021/12/04 08:03:36;;;;;;;;;;;;;;;-142.21;100.00;66915.31;5021542;28;1756;-86
2021/12/04 08:06:01;;;;;;;;;;;;;;;-142.21;100.00;66915.31;5022593;28;1113;-86
2021/12/04 08:08:26;;;;;;;;;;;;;;;-142.21;100.00;66915.31;5022487;28;1875;-87
2021/12/04 08:10:52;;;;;;;;;;;;;;;-142.21;100.00;66915.31;5019028;28;1815;-86
2021/12/04 08:13:17;;;;;;;;;;;;;;;-142.21;100.00;66915.31;5024525;28;1310;-86
2021/12/04 08:15:42;;;;;;;;;;;;;;;-142.21;100.00;66915.31;5023514;28;1087;-85
2021/12/04 08:18:08;;;;;;;;;;;;;;;-142.21;100.00;66915.31;5028333;28;1016;-85
2021/12/04 08:20:33;;;;;;;;;;;;;;;-142.21;100.00;66915.31;5024286;28;1626;-86
2021/12/04 08:22:59;;;;;;;;;;;;;;;-142.21;100.00;66915.31;5022677;28;1200;-86
2021/12/04 08:25:25;;;;;;;;;;;;;;;-142.21;100.00;66915.31;5017242;28;1249;-87
2021/12/04 08:27:51;;;;;;;;;;;;;;;-142.21;100.00;66915.31;5016483;28;1956;-87
2021/12/04 08:30:19;;;;;;;;;;;;;;;-142.21;100.00;66915.31;5018373;28;992;-87
2021/12/04 08:32:44;;;;;;;;;;;;;;;-142.21;100.00;66915.31;5016435;28;1586;-87
2021/12/04 08:35:10;;;;;;;;;;;;;;;-142.21;100.00;66915.31;5018211;28;1280;-86
2021/12/04 08:37:36;;;;;;;;;;;;;;;-142.21;100.00;66915.31;5017447;28;1177;-88
2021/12/04 08:40:03;;;;;;;;;;;;;;;-142.21;100.00;66915.31;5014816;28;1558;-87
2021/12/04 08:42:28;;;;;;;;;;;;;;;-142.21;100.00;66915.31;5016288;28;1059;-87
2021/12/04 08:44:53;;;;;;;;;;;;;;;-142.21;100.00;66915.31;5015113;28;1202;-87
2021/12/04 08:47:18;;;;;;;;;;;;;;;-142.21;100.00;66915.31;5015807;28;1637;-87
2021/12/04 08:49:44;;;;;;;;;;;;;;;-142.21;100.00;66915.31;5016804;28;1940;-88
2021/12/04 08:52:10;;;;;;;;;;;;;;;-142.21;100.00;66915.31;5016054;28;1288;-87
2021/12/04 08:54:37;;;;;;;;;;;;;;;-142.21;100.00;66915.31;5015156;28;1673;-87
2021/12/04 08:57:02;;;;;;;;;;;;;;;-142.21;100.00;66915.31;5017088;28;887;-87
2021/12/04 08:59:29;;;;;;;;;;;;;;;-142.21;100.00;66915.31;5015360;28;1382;-86
2021/12/04 09:01:54;;;;;;;;;;;;;;;-142.21;100.00;66915.31;5015826;28;1235;-87
2021/12/04 09:04:23;;;;;;;;;;;;;;;-142.21;100.00;66915.31;5014686;28;1490;-87
2021/12/04 09:06:50;;;;;;;;;;;;;;;-142.21;100.00;66915.31;5017780;28;1451;-87
2021/12/04 09:09:15;;;;;;;;;;;;;;;-142.21;100.00;66915.31;5014381;28;2005;-88
2021/12/04 09:11:43;;;;;;;;;;;;;;;-142.21;100.00;66915.31;5014784;28;1263;-87
2021/12/04 09:14:10;;;;;;;;;;;;;;;-142.21;100.00;66915.31;5015217;28;1479;-87
2021/12/04 09:16:35;;;;;;;;;;;;;;;-142.21;100.00;66915.31;5022566;28;1182;-87
2021/12/04 09:19:02;;;;;;;;;;;;;;;-142.21;100.00;66915.31;5021180;28;1360;-86
2021/12/04 09:21:28;;;;;;;;;;;;;;;-142.21;100.00;66915.31;5023452;28;1336;-87
2021/12/04 09:24:04;;;;;;;;;;;;;;;-142.21;100.00;66915.31;5022121;28;1311;-87
2021/12/04 10:01:54;;;;;;;;;;;;;;;-142.21;100.00;66915.31;5015522;28;1597;-87
2021/12/04 10:20:56;;;;;;;;;;;;;;;-142.21;100.00;66915.31;5020528;28;605;-87
2021/12/04 10:34:32;;;;;;;;;;;;;;;-142.21;100.00;66915.31;5017554;28;1228;-87
2021/12/04 10:37:08;;;;;;;;;;;;;;;-142.21;100.00;66915.31;5017042;28;1606;-86
2021/12/04 10:39:34;;;;;;;;;;;;;;;-142.21;100.00;66915.31;5032863;28;1535;-85
2021/12/04 10:42:02;;;;;;;;;;;;;;;-142.21;100.00;66915.31;5014064;28;1503;-87
2021/12/04 10:44:28;;;;;;;;;;;;;;;-142.21;100.00;66915.31;5014421;28;1561;-86
2021/12/04 10:47:10;;;;;;;;;;;;;;;-142.21;100.00;66915.31;5016110;28;1282;-87
2021/12/04 10:49:44;;;;;;;;;;;;;;;-142.21;100.00;66915.31;5011937;28;1897;-87
2021/12/04 10:52:23;;;;;;;;;;;;;;;-142.21;100.00;66915.31;5000359;28;1447;-87
2021/12/04 10:54:52;;;;;;;;;;;;;;;-142.21;100.00;66915.31;5016607;28;1447;-85
2021/12/04 11:00:03;;;;;;;;;;;;;;;-142.21;100.00;66915.31;5017346;28;1597;-85
2021/12/04 11:02:34;;;;;;;;;;;;;;;-142.21;100.00;66915.31;4996272;28;1188;-87
2021/12/04 11:05:40;;;;;;;;;;;;;;;-142.21;100.00;66915.31;4996641;28;1288;-86
2021/12/04 11:22:33;;;;;;;;;;;;;;;-142.21;100.00;66915.31;5001286;28;613;-86
2021/12/04 11:36:25;;;;;;;;;;;;;;;-142.21;100.00;66915.31;5018382;28;621;-86
2021/12/04 11:41:42;;;;;;;;;;;;;;;-142.21;100.00;66915.31;5020999;28;849;-86
2021/12/04 11:44:24;;;;;;;;;;;;;;;-142.21;100.00;66915.31;5019168;28;1260;-86
2021/12/04 11:46:54;;;;;;;;;;;;;;;-142.21;100.00;66915.31;5018765;28;1447;-85
2021/12/04 11:49:21;;;;;;;;;;;;;;;-142.21;100.00;66915.31;5018564;28;1928;-88
2021/12/04 11:51:48;;;;;;;;;;;;;;;-142.21;100.00;66915.31;5017918;28;1372;-87
2021/12/04 11:54:13;;;;;;;;;;;;;;;-142.21;100.00;66915.31;5018622;28;1465;-87
2021/12/04 11:56:39;;;;;;;;;;;;;;;-142.21;100.00;66915.31;5018456;28;1165;-88
2021/12/04 11:59:04;;;;;;;;;;;;;;;-142.21;100.00;66915.31;5017154;28;1223;-87
2021/12/04 12:01:34;;;;;;;;;;;;;;;-142.21;100.00;66915.31;5019210;28;1617;-86
2021/12/04 12:04:10;;;;;;;;;;;;;;;-142.21;100.00;66915.31;5020561;28;1307;-88
2021/12/04 12:06:44;;;;;;;;;;;;;;;-142.21;100.00;66915.31;5016057;28;1617;-87
2021/12/04 12:09:10;;;;;;;;;;;;;;;-142.21;100.00;66915.31;5016494;28;1894;-87
2021/12/04 12:11:35;;;;;;;;;;;;;;;-142.21;100.00;66915.31;5018479;28;1489;-88
2021/12/04 12:14:11;;;;;;;;;;;;;;;-142.21;100.00;66915.31;5019049;28;1681;-86
2021/12/04 12:16:45;;;;;;;;;;;;;;;-142.21;100.00;66915.31;5019516;28;1196;-85
2021/12/04 12:19:25;;;;;;;;;;;;;;;-142.21;100.00;66915.31;5018812;28;1638;-86
2021/12/04 12:21:58;;;;;;;;;;;;;;;-142.21;100.00;66915.31;5020660;28;1492;-85
2021/12/04 12:33:23;;;;;;;;;;;;;;;-142.21;100.00;66915.31;4996634;28;664;-88
2021/12/04 12:38:09;;;;;;;;;;;;;;;-142.21;100.00;66915.31;4995739;28;651;-87
2021/12/04 12:40:34;;;;;;;;;;;;;;;-142.21;100.00;66915.31;5011166;28;1237;-88
2021/12/04 12:43:08;;;;;;;;;;;;;;;-142.21;100.00;66915.31;4996491;28;1281;-87
2021/12/04 12:45:35;;;;;;;;;;;;;;;-142.21;100.00;66915.31;5007521;28;1428;-87
2021/12/04 12:48:02;;;;;;;;;;;;;;;-142.21;100.00;66915.31;5009601;28;1895;-86
2021/12/04 12:50:39;;;;;;;;;;;;;;;-142.21;100.00;66915.31;5018609;28;1316;-86
2021/12/04 12:53:04;;;;;;;;;;;;;;;-142.21;100.00;66915.31;5015717;28;1467;-86
2021/12/04 12:55:34;;;;;;;;;;;;;;;-142.21;100.00;66915.31;5011221;28;1382;-87
2021/12/04 12:58:10;;;;;;;;;;;;;;;-142.21;100.00;66915.31;5018001;28;1056;-87
2021/12/04 13:11:44;;;;;;;;;;;;;;;-142.21;100.00;66915.31;5012435;28;1360;-86
2021/12/04 13:14:18;;;;;;;;;;;;;;;-142.21;100.00;66915.31;5013326;28;1332;-85
2021/12/04 13:16:47;;;;;;;;;;;;;;;-142.21;100.00;66915.31;5019301;28;869;-85
2021/12/04 13:19:14;;;;;;;;;;;;;;;-142.21;100.00;66915.31;5017829;28;1659;-85
2021/12/04 13:21:42;;;;;;;;;;;;;;;-142.21;100.00;66915.31;5032877;28;1292;-85
2021/12/04 13:24:10;;;;;;;;;;;;;;;-142.21;100.00;66915.31;5019379;28;1661;-86
2021/12/04 13:26:37;;;;;;;;;;;;;;;-142.21;100.00;66915.31;5021074;28;1313;-86
2021/12/04 13:29:04;;;;;;;;;;;;;;;-142.21;100.00;66915.31;5008939;28;1890;-85
2021/12/04 13:31:29;;;;;;;;;;;;;;;-142.21;100.00;66915.31;5013356;28;1987;-84
2021/12/04 13:33:55;;;;;;;;;;;;;;;-142.21;100.00;66915.31;5007489;28;1268;-84
2021/12/04 13:36:28;;;;;;;;;;;;;;;-142.21;100.00;66915.31;5004186;28;1471;-86
2021/12/04 13:39:03;;;;;;;;;;;;;;;-142.21;100.00;66915.31;4997714;28;1004;-85
2021/12/04 13:41:29;;;;;;;;;;;;;;;-142.21;100.00;66915.31;4996698;28;1161;-84
2021/12/04 13:43:55;;;;;;;;;;;;;;;-142.21;100.00;66915.31;4997532;28;1333;-85
2021/12/04 13:46:21;;;;;;;;;;;;;;;-142.21;100.00;66915.31;4997047;28;1259;-85
2021/12/04 13:48:46;;;;;;;;;;;;;;;-142.21;100.00;66915.31;5014413;28;1951;-87
2021/12/04 13:51:11;;;;;;;;;;;;;;;-142.21;100.00;66915.31;5017730;28;1298;-85
2021/12/04 13:53:38;;;;;;;;;;;;;;;-142.21;100.00;66915.31;5007824;28;1348;-84
2021/12/04 13:56:09;;;;;;;;;;;;;;;-142.21;100.00;66915.31;4998832;28;1079;-84
2021/12/04 13:58:53;;;;;;;;;;;;;;;-142.21;100.00;66915.31;4999195;28;1233;-85
2021/12/04 14:01:22;;;;;;;;;;;;;;;-142.21;100.00;66915.31;5006806;28;1470;-86
2021/12/04 14:04:16;;;;;;;;;;;;;;;-142.21;100.00;66915.31;5000678;28;1219;-87
2021/12/04 14:06:55;;;;;;;;;;;;;;;-142.21;100.00;66915.31;5014531;28;1385;-86
2021/12/04 14:09:21;;;;;;;;;;;;;;;-142.21;100.00;66915.31;5001668;28;1894;-86
2021/12/04 14:11:47;;;;;;;;;;;;;;;-142.21;100.00;66915.31;5017431;28;1523;-84
2021/12/04 14:14:14;;;;;;;;;;;;;;;-142.21;100.00;66915.31;5014961;28;1303;-86
2021/12/04 14:16:41;;;;;;;;;;;;;;;-142.21;100.00;66915.31;5016621;28;1059;-85
2021/12/04 14:19:25;;;;;;;;;;;;;;;-142.21;100.00;66915.31;5016059;28;1290;-86
2021/12/04 14:21:53;;;;;;;;;;;;;;;-142.21;100.00;66915.31;5014153;28;1474;-86
2021/12/04 14:24:25;;;;;;;;;;;;;;;-142.21;100.00;66915.31;5017015;28;1657;-86
2021/12/04 14:26:51;;;;;;;;;;;;;;;-142.21;100.00;66915.31;5003164;28;1311;-86
2021/12/04 14:29:16;;;;;;;;;;;;;;;-142.21;100.00;66915.31;5006010;28;1898;-85
2021/12/04 14:31:45;;;;;;;;;;;;;;;-142.21;100.00;66915.31;5017970;28;1245;-86
2021/12/04 14:34:18;;;;;;;;;;;;;;;-142.21;100.00;66915.31;5012596;28;1515;-85
2021/12/04 14:36:43;;;;;;;;;;;;;;;-142.21;100.00;66915.31;5006815;28;1210;-86
2021/12/04 14:39:08;;;;;;;;;;;;;;;-142.21;100.00;66915.31;5015854;28;1430;-87
2021/12/04 14:41:34;;;;;;;;;;;;;;;-142.21;100.00;66915.31;5016546;28;1700;-87
2021/12/04 14:43:59;;;;;;;;;;;;;;;-142.21;100.00;66915.31;5016101;28;1423;-86
2021/12/04 14:46:26;;;;;;;;;;;;;;;-142.21;100.00;66915.31;5014177;28;1358;-86
2021/12/04 14:48:52;;;;;;;;;;;;;;;-142.21;100.00;66915.31;5016550;28;1894;-87
2021/12/04 14:51:18;;;;;;;;;;;;;;;-142.21;100.00;66915.31;5016467;28;1420;-86
2021/12/04 14:53:47;;;;;;;;;;;;;;;-142.21;100.00;66915.31;5019473;28;1337;-87
2021/12/04 14:56:12;;;;;;;;;;;;;;;-142.21;100.00;66915.31;5021128;28;1440;-87
2021/12/04 14:58:38;;;;;;;;;;;;;;;-142.21;100.00;66915.31;5018723;28;1482;-88
2021/12/04 15:01:05;;;;;;;;;;;;;;;-142.21;100.00;66915.31;5019793;28;1212;-87
2021/12/04 15:03:35;;;;;;;;;;;;;;;-142.21;100.00;66915.31;5019953;28;1440;-86
2021/12/04 15:06:04;;;;;;;;;;;;;;;-142.21;100.00;66915.31;5019218;28;1479;-86
2021/12/04 15:08:38;;;;;;;;;;;;;;;-142.21;100.00;66915.31;5019852;28;1965;-86
2021/12/04 15:11:16;;;;;;;;;;;;;;;-142.21;100.00;66915.31;5010517;28;1589;-86
2021/12/04 15:13:52;;;;;;;;;;;;;;;-142.21;100.00;66915.31;5006739;28;1367;-87
2021/12/04 15:16:20;;;;;;;;;;;;;;;-142.21;100.00;66915.31;5022119;28;873;-86
2021/12/04 15:18:45;;;;;;;;;;;;;;;-142.21;100.00;66915.31;5020082;28;1455;-87
2021/12/04 15:21:14;;;;;;;;;;;;;;;-142.21;100.00;66915.31;5019491;28;1495;-87
2021/12/04 15:23:40;;;;;;;;;;;;;;;-142.21;100.00;66915.31;5016874;28;1331;-87
2021/12/04 15:26:13;;;;;;;;;;;;;;;-142.21;100.00;66915.31;5020675;28;1436;-87
2021/12/04 15:28:45;;;;;;;;;;;;;;;-142.21;100.00;66915.31;5018809;28;1910;-87
2021/12/04 15:31:10;;;;;;;;;;;;;;;-142.21;100.00;66915.31;5019077;28;1338;-87
2021/12/04 15:33:37;;;;;;;;;;;;;;;-142.21;100.00;66915.31;5019435;28;1533;-87
2021/12/04 15:36:03;;;;;;;;;;;;;;;-142.21;100.00;66915.31;5018676;28;1220;-87
2021/12/04 15:38:36;;;;;;;;;;;;;;;-142.21;100.00;66915.31;5018777;28;1948;-87
2021/12/04 15:44:01;;;;;;;;;;;;;;;-142.21;100.00;66915.31;5016329;28;1972;-86
2021/12/04 15:46:38;;;;;;;;;;;;;;;-142.21;100.00;66915.31;5002580;28;1138;-87
2021/12/04 15:52:45;;;;;;;;;;;;;;;-142.21;100.00;66915.31;5015028;28;1654;-86
2021/12/04 15:54:35;;;;;;;;;;;;;;;-142.21;100.00;66915.31;5014540;28;1838;-87
2021/12/04 15:57:21;;;;;;;;;;;;;;;-142.21;100.00;66915.31;5018626;28;1210;-87
2021/12/04 16:00:14;;;;;;;;;;;;;;;-142.21;100.00;66915.31;5016015;28;1455;-88
2021/12/04 16:02:56;;;;;;;;;;;;;;;-142.21;100.00;66915.31;4990803;28;1311;-88
2021/12/04 16:05:38;;;;;;;;;;;;;;;;;;;;;
2021/12/04 16:08:14;;;;;;;;;;;;;;;-142.21;100.00;66915.31;4999614;28;1891;-88
2021/12/04 16:10:47;;;;;;;;;;;;;;;-142.21;100.00;66915.31;4997802;28;1169;-87
2021/12/04 16:13:15;;;;;;;;;;;;;;;-142.21;100.00;66915.31;4997371;28;1205;-88
2021/12/04 16:15:42;;;;;;;;;;;;;;;-142.21;100.00;66915.31;4997752;28;1319;-88
2021/12/04 16:18:09;;;;;;;;;;;;;;;-142.21;100.00;66915.31;5008603;28;1472;-89
2021/12/04 16:20:49;;;;;;;;;;;;;;;-142.21;100.00;66915.31;5017051;28;1471;-88
2021/12/04 16:23:17;;;;;;;;;;;;;;;-142.21;100.00;66915.31;5017695;28;1362;-88
2021/12/04 16:25:49;;;;;;;;;;;;;;;-142.21;100.00;66915.31;5017824;28;1337;-86
2021/12/04 16:30:53;;;;;;;;;;;;;;;-142.21;100.00;66915.31;5017882;28;1078;-88
2021/12/04 16:36:06;;;;;;;;;;;;;;;-142.21;100.00;66915.31;5057345;28;1536;-86
2021/12/04 16:38:33;;;;;;;;;;;;;;;-142.21;100.00;66915.31;5056147;28;1249;-87
2021/12/04 16:41:02;;;;;;;;;;;;;;;-142.21;100.00;66915.31;5058480;28;1046;-90
2021/12/04 16:43:37;;;;;;;;;;;;;;;-142.21;100.00;66915.31;5073512;28;1220;-87
2021/12/04 16:46:09;;;;;;;;;;;;;;;-142.21;100.00;66915.31;5057830;28;825;-88
2021/12/04 16:48:38;;;;;;;;;;;;;;;-142.21;100.00;66915.31;5057340;28;1952;-88
2021/12/04 16:58:58;;;;;;;;;;;;;;;-142.21;100.00;66915.31;5058915;28;1430;-88
2021/12/04 17:01:24;;;;;;;;;;;;;;;-142.21;100.00;66915.31;5057621;28;1310;-87
2021/12/04 17:03:49;;;;;;;;;;;;;;;-142.21;100.00;66915.31;5059209;28;915;-87
2021/12/04 17:06:15;;;;;;;;;;;;;;;-142.21;100.00;66915.31;5058181;28;1365;-88
2021/12/04 17:08:41;;;;;;;;;;;;;;;-142.21;100.00;66915.31;5059967;28;1937;-88
2021/12/04 17:11:07;;;;;;;;;;;;;;;-142.21;100.00;66915.31;5057738;28;1613;-88
2021/12/04 17:13:32;;;;;;;;;;;;;;;-142.21;100.00;66915.31;5058777;28;1266;-87
2021/12/04 17:15:58;;;;;;;;;;;;;;;-142.21;100.00;66915.31;5058815;28;868;-87
2021/12/04 17:18:25;;;;;;;;;;;;;;;-142.21;100.00;66915.31;5057934;28;1498;-87
2021/12/04 17:20:51;;;;;;;;;;;;;;;-142.21;100.00;66915.31;5058451;28;896;-87
2021/12/04 17:23:23;;;;;;;;;;;;;;;-142.21;100.00;66915.31;5057372;28;1206;-88
2021/12/04 17:25:49;;;;;;;;;;;;;;;-142.21;100.00;66915.31;5055291;28;1247;-87
2021/12/04 17:28:15;;;;;;;;;;;;;;;-142.21;100.00;66915.31;5058885;28;1889;-85
2021/12/04 17:30:41;;;;;;;;;;;;;;;-142.21;100.00;66915.31;5056150;28;1511;-85
2021/12/04 17:33:07;;;;;;;;;;;;;;;-142.21;100.00;66915.31;5055572;28;1542;-84
2021/12/04 17:35:33;;;;;;;;;;;;;;;-142.21;100.00;66915.31;5055573;28;1227;-84
2021/12/04 17:38:00;;;;;;;;;;;;;;;-142.21;100.00;66915.31;5056095;28;1311;-84
2021/12/04 17:40:25;;;;;;;;;;;;;;;-142.21;100.00;66915.31;5053354;28;1460;-87
2021/12/04 17:42:51;;;;;;;;;;;;;;;-142.21;100.00;66915.31;5069211;28;1252;-85
2021/12/04 17:45:16;;;;;;;;;;;;;;;-142.21;100.00;66915.31;5066016;28;1217;-85